Time;durP1;ratioP1;P1;durP2;ratioP2;P2;SDS_P1;SDS_P2;PMS_P1;PMS_P2;Temp;Humidity;BMP_temperature;BMP_pressure;BME280_temperature;BME280_humidity;BME280_pressure;Samples;Min_cycle;Max_cycle;Signal;HPM_P1;HPM_P2
2023/01/13 00:01:23;;;;;;;23.67;9.43;;;;;;;16.42;57.72;100373.88;6154040;23;20791;-33
2023/01/13 00:03:53;;;;;;;17.50;8.82;;;;;;;16.41;57.79;100364.19;6152833;23;20104;-34
2023/01/13 00:06:24;;;;;;;22.45;9.27;;;;;;;16.40;58.22;100366.03;6154413;23;20021;-34
2023/01/13 00:08:52;;;;;;;18.65;8.90;;;;;;;16.40;57.71;100357.13;6152778;23;20452;-34
2023/01/13 00:11:19;;;;;;;22.25;9.35;;;;;;;16.40;58.02;100357.13;6153711;23;20086;-34
2023/01/13 00:13:46;;;;;;;21.80;8.70;;;;;;;16.40;58.03;100373.19;6153036;23;20033;-34
2023/01/13 00:16:15;;;;;;;17.17;8.90;;;;;;;16.39;58.23;100368.84;6156995;23;20128;-34
2023/01/13 00:18:43;;;;;;;21.42;9.38;;;;;;;16.39;58.23;100384.88;6156446;23;20398;-34
2023/01/13 00:21:16;;;;;;;19.13;8.65;;;;;;;16.38;58.52;100380.53;6157019;23;20025;-34
2023/01/13 00:23:43;;;;;;;20.70;8.30;;;;;;;16.37;57.94;100387.72;6156072;23;20025;-34
2023/01/13 00:26:15;;;;;;;19.73;8.38;;;;;;;16.37;57.61;100385.06;6156319;23;20081;-35
2023/01/13 00:28:42;;;;;;;20.02;8.80;;;;;;;16.39;57.60;100387.56;6156101;23;20037;-34
2023/01/13 00:31:11;;;;;;;20.58;8.23;;;;;;;16.37;58.02;100376.19;6156598;23;20064;-34
2023/01/13 00:33:39;;;;;;;20.65;8.27;;;;;;;16.35;57.48;100380.84;6153580;23;20025;-35
2023/01/13 00:36:07;;;;;;;19.08;7.63;;;;;;;16.34;57.33;100380.00;6156883;23;20097;-34
2023/01/13 00:38:34;;;;;;;18.63;8.25;;;;;;;16.34;57.32;100373.81;6155058;23;20025;-34
2023/01/13 00:41:04;;;;;;;19.17;7.55;;;;;;;16.33;57.80;100364.97;6156060;23;20104;-34
2023/01/13 00:43:32;;;;;;;19.67;7.70;;;;;;;16.32;57.26;100359.75;6157122;23;20025;-34
2023/01/13 00:45:59;;;;;;;23.35;8.05;;;;;;;16.32;57.60;100365.94;6155117;23;20025;-34
2023/01/13 00:48:27;;;;;;;16.33;7.05;;;;;;;16.29;56.62;100353.72;6150918;23;20025;-35
2023/01/13 00:50:59;;;;;;;19.23;7.15;;;;;;;16.30;57.37;100359.91;6153502;23;20021;-34
2023/01/13 00:53:27;;;;;;;19.70;7.93;;;;;;;16.31;56.61;100348.22;6153284;23;20029;-38
2023/01/13 00:56:02;;;;;;;19.08;6.85;;;;;;;16.29;56.66;100351.06;6152185;23;20026;-34
2023/01/13 00:58:31;;;;;;;19.45;6.85;;;;;;;16.31;57.30;100344.69;6152288;23;20037;-34
2023/01/13 01:01:02;;;;;;;18.67;7.50;;;;;;;16.29;57.71;100343.03;6153861;23;20018;-34
2023/01/13 01:03:30;;;;;;;14.77;6.00;;;;;;;16.30;56.87;100327.81;6152513;23;20021;-34
2023/01/13 01:06:04;;;;;;;16.58;7.05;;;;;;;16.28;57.17;100330.66;6153534;23;20030;-34
2023/01/13 01:08:30;;;;;;;14.75;6.07;;;;;;;16.28;56.38;100325.31;6153183;23;20025;-34
2023/01/13 01:11:05;;;;;;;21.10;6.55;;;;;;;16.27;56.97;100328.97;6152437;23;20753;-34
2023/01/13 01:13:32;;;;;;;17.75;6.18;;;;;;;16.27;56.50;100312.91;6154150;23;20033;-35
2023/01/13 01:15:58;;;;;;;19.85;6.50;;;;;;;16.26;56.64;100311.25;6153720;23;20021;-34
2023/01/13 01:18:25;;;;;;;19.33;6.50;;;;;;;16.25;56.83;100298.88;6153739;23;20033;-34
2023/01/13 01:20:52;;;;;;;21.75;6.50;;;;;;;16.24;56.92;100310.56;6152950;23;20029;-34
2023/01/13 01:23:18;;;;;;;17.27;6.05;;;;;;;16.23;56.96;100314.22;6151493;23;20028;-34
2023/01/13 01:25:45;;;;;;;21.52;6.85;;;;;;;16.25;56.57;100324.78;6152650;23;20021;-34
2023/01/13 01:28:12;;;;;;;21.15;6.00;;;;;;;16.22;56.65;100331.28;6153693;23;20071;-34
2023/01/13 01:30:39;;;;;;;16.75;5.53;;;;;;;16.21;56.19;100326.91;6152892;23;20025;-34
2023/01/13 01:33:05;;;;;;;24.05;5.95;;;;;;;16.20;55.91;100333.28;6151644;23;20313;-34
2023/01/13 01:35:32;;;;;;;14.60;5.45;;;;;;;16.19;56.67;100336.91;6153045;23;20025;-34
2023/01/13 01:37:58;;;;;;;19.38;5.65;;;;;;;16.19;55.97;100330.72;6153026;23;20085;-35
2023/01/13 01:40:26;;;;;;;18.15;5.78;;;;;;;16.18;56.49;100343.25;6152190;23;20084;-34
2023/01/13 01:45:38;;;;;;;19.08;5.35;;;;;;;16.16;56.31;100337.25;6153340;23;20288;-34
2023/01/13 01:48:06;;;;;;;22.65;5.45;;;;;;;16.15;55.62;100335.53;6152822;23;20025;-34
2023/01/13 01:50:34;;;;;;;21.98;5.97;;;;;;;16.15;56.62;100334.72;6153365;23;20028;-34
2023/01/13 01:53:14;;;;;;;19.42;5.93;;;;;;;16.13;56.31;100329.53;6151609;23;20090;-34
2023/01/13 01:55:41;;;;;;;15.63;5.38;;;;;;;16.14;56.47;100327.69;6151456;23;20036;-34
2023/01/13 01:58:27;;;;;;;19.60;5.03;;;;;;;16.10;55.54;100305.78;6153122;23;20021;-35
2023/01/13 02:00:53;;;;;;;18.33;5.68;;;;;;;16.11;55.96;100307.44;6153144;23;20021;-34
2023/01/13 02:03:20;;;;;;;19.58;5.05;;;;;;;16.11;55.97;100312.78;6151483;23;20029;-35
2023/01/13 02:05:47;;;;;;;15.85;4.55;;;;;;;16.10;56.44;100307.59;6154101;23;20026;-34
2023/01/13 02:08:14;;;;;;;17.30;4.80;;;;;;;16.10;55.48;100310.28;6153201;23;20048;-34
2023/01/13 02:10:44;;;;;;;19.50;5.00;;;;;;;16.07;55.74;100316.75;6155415;23;20025;-34
2023/01/13 02:13:12;;;;;;;13.98;3.80;;;;;;;16.08;55.40;100307.78;6156287;23;20072;-34
2023/01/13 02:15:52;;;;;;;19.50;4.97;;;;;;;16.06;55.70;100307.06;6155729;23;20022;-38
2023/01/13 02:18:28;;;;;;;16.98;4.38;;;;;;;16.07;55.59;100307.91;6156012;23;20025;-35
2023/01/13 02:21:06;;;;;;;15.27;4.35;;;;;;;16.06;55.35;100304.41;6156388;23;20088;-34
2023/01/13 02:26:58;;;;;;;19.23;4.85;;;;;;;16.04;56.27;100303.72;6154601;23;20286;-34
2023/01/13 02:32:54;;;;;;;23.13;4.53;;;;;;;16.05;55.12;100292.03;6156355;23;20029;-35
2023/01/13 02:35:26;;;;;;;17.67;4.65;;;;;;;16.07;56.06;100276.66;6155777;23;20097;-35
2023/01/13 02:37:56;;;;;;;19.67;5.03;;;;;;;16.08;55.23;100282.84;6155668;23;20029;-34
2023/01/13 02:40:30;;;;;;;24.55;5.15;;;;;;;16.06;55.38;100279.50;6152915;23;20028;-35
2023/01/13 02:45:55;;;;;;;14.15;4.13;;;;;;;16.06;55.08;100279.50;6152560;23;20294;-34
2023/01/13 02:48:23;;;;;;;;;;;;;;;16.03;54.86;100280.63;6153440;23;20335;-34
2023/01/13 02:50:55;;;;;;;19.20;4.00;;;;;;;16.05;55.73;100284.00;6153401;23;19923;-34
2023/01/13 02:53:34;;;;;;;21.98;4.30;;;;;;;16.03;54.86;100281.47;6152529;23;20053;-35
2023/01/13 02:56:04;;;;;;;18.33;3.80;;;;;;;16.05;54.98;100284.00;6152239;23;20028;-35
2023/01/13 02:58:35;;;;;;;22.20;4.70;;;;;;;16.04;55.26;100296.53;6153313;23;20452;-34
2023/01/13 03:01:01;;;;;;;18.67;4.43;;;;;;;16.03;55.72;100284.16;6155951;23;20315;-35
2023/01/13 03:03:28;;;;;;;15.85;4.78;;;;;;;16.04;55.65;100295.72;6151703;23;20025;-34
2023/01/13 03:06:29;;;;;;;17.90;4.20;;;;;;;16.02;55.12;100289.66;6152897;23;20029;-35
2023/01/13 03:09:25;;;;;;;23.50;5.65;;;;;;;16.01;54.68;100296.84;6150470;23;20030;-34
2023/01/13 03:12:00;;;;;;;18.17;4.57;;;;;;;16.02;54.70;100281.63;6150921;23;20026;-35
2023/01/13 03:15:02;;;;;;;18.30;4.13;;;;;;;16.02;55.97;100284.31;6154017;23;20052;-34
2023/01/13 03:17:40;;;;;;;16.75;4.13;;;;;;;16.02;54.98;100286.97;6034114;23;20110;-35
2023/01/13 03:20:22;;;;;;;16.42;4.20;;;;;;;16.01;54.94;100274.63;6138467;23;20021;-34
2023/01/13 03:22:54;;;;;;;19.35;4.38;;;;;;;16.02;55.99;100270.94;6155769;23;20021;-35
2023/01/13 03:25:23;;;;;;;19.77;4.10;;;;;;;16.00;54.71;100284.47;6156100;23;20108;-35
2023/01/13 03:27:57;;;;;;;18.42;3.72;;;;;;;15.99;55.56;100277.44;6157668;23;20032;-35
2023/01/13 03:30:35;;;;;;;19.67;4.95;;;;;;;16.00;55.56;100283.59;6156159;23;20112;-35
2023/01/13 03:33:08;;;;;;;19.95;4.68;;;;;;;16.01;55.82;100279.97;6157027;23;20026;-34
2023/01/13 03:35:44;;;;;;;14.75;4.30;;;;;;;15.99;55.34;100281.94;6157796;23;20032;-34
2023/01/13 03:38:22;;;;;;;15.73;3.63;;;;;;;15.99;55.02;100272.09;6156103;23;20052;-34
2023/01/13 03:40:53;;;;;;;18.02;4.35;;;;;;;15.98;55.03;100262.41;6155670;23;20024;-34
2023/01/13 03:46:43;;;;;;;15.93;3.65;;;;;;;15.98;54.91;100250.88;6157131;23;20032;-34
2023/01/13 03:49:16;;;;;;;15.73;3.72;;;;;;;16.00;54.57;100256.88;6111550;23;20044;-35
2023/01/13 03:51:49;;;;;;;16.13;4.67;;;;;;;16.00;55.05;100267.56;6157175;23;20429;-35
2023/01/13 03:54:18;;;;;;;15.35;4.03;;;;;;;16.00;55.40;100273.78;6152771;23;20039;-35
2023/01/13 03:56:49;;;;;;;14.07;3.38;;;;;;;16.02;55.02;100268.28;6153187;23;20382;-35
2023/01/13 03:59:22;;;;;;;14.23;4.00;;;;;;;16.00;55.56;100265.78;6153644;23;20109;-36
2023/01/13 04:01:53;;;;;;;22.20;4.80;;;;;;;16.01;55.26;100285.31;6152701;23;20021;-34
2023/01/13 04:04:34;;;;;;;11.57;3.20;;;;;;;15.98;55.21;100270.41;6154075;23;20108;-35
2023/01/13 04:07:34;;;;;;;14.02;3.28;;;;;;;15.98;54.89;100281.09;6154510;23;20120;-34
2023/01/13 04:10:05;;;;;;;20.08;3.92;;;;;;;15.98;55.65;100281.09;6108637;23;20030;-34
2023/01/13 04:13:01;;;;;;;16.83;3.67;;;;;;;15.99;55.57;100277.44;6152286;23;20022;-34
2023/01/13 04:15:35;;;;;;;16.02;4.25;;;;;;;15.96;54.88;100276.91;6154693;23;20022;-35
2023/01/13 04:18:21;;;;;;;;;;;;;;;15.94;54.78;100262.88;6154598;23;20060;-34
2023/01/13 04:20:50;;;;;;;11.00;3.28;;;;;;;15.99;54.74;100273.91;6154071;23;19926;-35
2023/01/13 04:23:18;;;;;;;14.05;3.20;;;;;;;15.97;54.71;100283.94;6151527;23;20030;-34
2023/01/13 04:25:45;;;;;;;12.82;3.20;;;;;;;15.95;54.86;100281.41;6152664;23;20021;-35
2023/01/13 04:28:13;;;;;;;16.40;3.08;;;;;;;15.95;55.48;100275.22;6152974;23;20022;-35
2023/01/13 04:30:40;;;;;;;11.50;3.25;;;;;;;15.93;nan;100267.38;6154338;23;20021;-34
2023/01/13 04:33:08;;;;;;;17.35;3.85;;;;;;;15.93;54.84;100263.88;6152781;23;20028;-35
2023/01/13 04:35:35;;;;;;;11.93;3.28;;;;;;;15.92;54.60;100263.03;6154289;23;20129;-35
2023/01/13 04:38:08;;;;;;;13.02;3.42;;;;;;;15.92;54.63;100264.84;6153403;23;20417;-34
2023/01/13 04:40:35;;;;;;;13.07;2.97;;;;;;;15.91;55.50;100255.97;6153709;23;20022;-35
2023/01/13 04:43:02;;;;;;;12.65;2.70;;;;;;;15.92;55.32;100267.50;6153484;23;20032;-34
2023/01/13 04:45:29;;;;;;;9.95;2.90;;;;;;;15.91;55.31;100271.19;6155230;23;20025;-36
2023/01/13 04:47:56;;;;;;;16.13;3.05;;;;;;;15.90;55.37;100277.53;6152170;23;20025;-34
2023/01/13 04:50:22;;;;;;;9.75;2.90;;;;;;;15.90;55.41;100272.19;6154485;23;20044;-35
2023/01/13 04:52:50;;;;;;;9.70;3.10;;;;;;;15.90;54.86;100274.84;6152931;23;20026;-35
2023/01/13 04:55:17;;;;;;;10.45;2.67;;;;;;;15.90;54.70;100272.19;6153428;23;20412;-35
2023/01/13 04:57:44;;;;;;;11.02;2.60;;;;;;;15.91;55.56;100279.19;6154529;23;20025;-35
2023/01/13 05:00:13;;;;;;;11.30;2.55;;;;;;;15.91;55.66;100288.06;6154501;23;20104;-35
2023/01/13 05:02:40;;;;;;;9.98;2.50;;;;;;;15.91;55.75;100284.53;6153716;23;20033;-35
2023/01/13 05:05:07;;;;;;;12.57;2.65;;;;;;;15.90;54.96;100266.84;6154936;23;20025;-34
2023/01/13 05:07:34;;;;;;;7.80;2.58;;;;;;;15.90;54.87;100272.19;6156752;23;20414;-34
2023/01/13 05:10:00;;;;;;;10.07;2.65;;;;;;;15.89;55.86;100273.19;6152203;23;20025;-34
2023/01/13 05:17:59;;;;;;;8.70;2.45;;;;;;;15.91;54.79;100272.00;6156067;23;20060;-34
2023/01/13 05:20:26;;;;;;;9.75;2.35;;;;;;;15.91;55.57;100285.38;6156289;23;20061;-34
2023/01/13 05:25:40;;;;;;;10.18;2.67;;;;;;;15.93;54.77;100285.25;6155940;23;20398;-34
2023/01/13 05:28:09;;;;;;;9.30;2.85;;;;;;;15.94;55.06;100289.59;6156160;23;20076;-34
2023/01/13 05:30:41;;;;;;;11.95;3.22;;;;;;;15.94;55.76;100292.25;6155868;23;20025;-35
2023/01/13 05:33:13;;;;;;;7.72;2.88;;;;;;;15.93;55.30;100288.75;6156532;23;20021;-36
2023/01/13 05:35:41;;;;;;;8.10;3.65;;;;;;;15.94;55.61;100285.06;6156242;23;20061;-34
2023/01/13 05:38:09;;;;;;;13.18;4.18;;;;;;;15.94;55.32;100294.94;6155446;23;20251;-35
2023/01/13 05:43:25;;;;;;;12.90;3.35;;;;;;;15.94;55.31;100287.75;6156179;23;20255;-34
2023/01/13 05:46:08;;;;;;;10.57;3.00;;;;;;;15.94;55.12;100287.75;6130745;23;20084;-34
2023/01/13 05:48:37;;;;;;;13.57;3.85;;;;;;;15.94;55.83;100284.25;6156476;23;20032;-34
2023/01/13 05:51:06;;;;;;;11.93;3.95;;;;;;;15.94;54.92;100290.44;6156054;23;20017;-34
2023/01/13 05:53:33;;;;;;;8.27;2.85;;;;;;;15.94;55.17;100281.56;6155106;23;20025;-34
2023/01/13 05:56:03;;;;;;;7.47;2.95;;;;;;;15.92;55.34;100279.06;6155420;23;20588;-34
2023/01/13 05:58:30;;;;;;;9.15;3.42;;;;;;;15.93;55.66;100291.44;6156699;23;20021;-35
2023/01/13 06:01:10;;;;;;;10.82;3.75;;;;;;;15.94;55.06;100286.91;6155445;23;20109;-34
2023/01/13 06:03:37;;;;;;;10.38;2.83;;;;;;;15.92;55.45;100295.09;6154386;23;20030;-34
2023/01/13 06:06:04;;;;;;;11.13;4.05;;;;;;;15.93;55.52;100286.09;6155009;23;20068;-35
2023/01/13 06:08:31;;;;;;;9.70;3.92;;;;;;;15.92;55.62;100292.44;6155088;23;20028;-34
2023/01/13 06:10:57;;;;;;;8.20;2.92;;;;;;;15.91;54.94;100301.41;6155047;23;20053;-34
2023/01/13 06:13:24;;;;;;;14.02;3.33;;;;;;;15.92;55.27;100288.88;6155929;23;20025;-34
2023/01/13 06:15:55;;;;;;;10.13;3.83;;;;;;;15.90;55.47;100297.06;6155289;23;20021;-34
2023/01/13 06:18:22;;;;;;;9.57;3.65;;;;;;;15.91;55.42;100300.56;6156069;23;20072;-34
2023/01/13 06:20:49;;;;;;;10.75;3.50;;;;;;;15.91;55.05;100293.41;6154223;23;20406;-34
2023/01/13 06:23:15;;;;;;;12.25;4.00;;;;;;;15.91;55.04;100293.41;6153481;23;20025;-34
2023/01/13 06:26:00;;;;;;;11.43;3.47;;;;;;;15.91;55.57;100297.91;6155161;23;20022;-34
2023/01/13 06:28:26;;;;;;;13.63;3.90;;;;;;;15.91;55.08;100300.56;6154901;23;20048;-35
2023/01/13 06:30:59;;;;;;;9.75;3.50;;;;;;;15.90;55.29;100299.75;6156092;23;20036;-34
2023/01/13 06:33:32;;;;;;;11.02;3.00;;;;;;;15.91;54.72;100303.25;6155585;23;20025;-34
2023/01/13 06:36:02;;;;;;;9.53;3.60;;;;;;;15.91;54.81;100314.78;6156255;23;20223;-35
2023/01/13 06:38:32;;;;;;;16.20;3.92;;;;;;;15.92;55.28;100307.59;6155324;23;20021;-35
2023/01/13 06:40:58;;;;;;;13.85;3.70;;;;;;;15.93;54.82;100320.81;6155457;23;20025;-34
2023/01/13 06:43:25;;;;;;;9.00;3.30;;;;;;;15.94;54.75;100311.81;6155951;23;20473;-34
2023/01/13 06:45:53;;;;;;;10.40;4.18;;;;;;;15.96;55.46;100327.69;6155014;23;20025;-37
2023/01/13 06:48:26;;;;;;;9.52;2.95;;;;;;;15.95;55.35;100321.50;6155306;23;20405;-35
2023/01/13 06:50:53;;;;;;;10.57;4.13;;;;;;;15.97;55.24;100326.72;6158389;23;20109;-36
2023/01/13 06:53:20;;;;;;;11.98;4.15;;;;;;;15.98;54.68;100325.72;6156730;23;20033;-34
2023/01/13 06:55:46;;;;;;;11.80;3.75;;;;;;;15.98;54.58;100317.69;6157181;23;20021;-34
2023/01/13 06:58:13;;;;;;;12.95;4.05;;;;;;;15.97;54.74;100313.34;6156890;23;20022;-34
2023/01/13 07:00:40;;;;;;;12.40;3.80;;;;;;;15.98;54.52;100328.38;6157778;23;20108;-34
2023/01/13 07:03:17;;;;;;;14.75;3.72;;;;;;;15.96;54.61;100331.22;6155101;23;20028;-36
2023/01/13 07:05:52;;;;;;;7.43;3.00;;;;;;;15.96;55.33;100319.66;6156550;23;20417;-34
2023/01/13 07:08:19;;;;;;;11.45;3.53;;;;;;;15.98;54.58;100325.72;6151055;23;20088;-35
2023/01/13 07:10:46;;;;;;;14.82;3.70;;;;;;;15.96;55.27;100309.84;6157167;23;20105;-35
2023/01/13 07:16:03;;;;;;;10.40;3.40;;;;;;;15.96;54.72;100325.88;6155756;23;20022;-34
2023/01/13 07:18:31;;;;;;;10.68;3.05;;;;;;;15.97;54.19;100322.19;6156231;23;20021;-35
2023/01/13 07:21:00;;;;;;;8.07;2.90;;;;;;;15.96;54.44;100328.53;6156455;23;20021;-34
2023/01/13 07:23:32;;;;;;;12.32;4.15;;;;;;;15.98;55.08;100344.41;6154425;23;20057;-34
2023/01/13 07:25:59;;;;;;;10.30;3.30;;;;;;;15.97;55.50;100321.38;6156457;23;20022;-34
2023/01/13 07:28:27;;;;;;;14.13;3.92;;;;;;;15.96;54.88;100328.53;6156672;23;20022;-34
2023/01/13 07:30:54;;;;;;;14.00;3.45;;;;;;;15.96;55.42;100325.00;6156794;23;20036;-35
2023/01/13 07:33:21;;;;;;;9.98;3.42;;;;;;;15.96;55.12;100327.69;6156169;23;20096;-35
2023/01/13 07:35:48;;;;;;;11.68;3.47;;;;;;;15.95;54.94;100326.84;6156324;23;20026;-34
2023/01/13 07:38:14;;;;;;;11.30;3.35;;;;;;;15.96;54.68;100322.34;6155350;23;20060;-35
2023/01/13 07:40:41;;;;;;;14.48;3.67;;;;;;;15.96;54.52;100333.03;6156265;23;20273;-34
2023/01/13 07:45:57;;;;;;;11.20;3.13;;;;;;;15.96;54.96;100330.34;6157033;23;20108;-35
2023/01/13 07:48:25;;;;;;;9.23;3.45;;;;;;;15.96;54.56;100341.03;6156914;23;20107;-34
2023/01/13 07:50:52;;;;;;;8.50;3.60;;;;;;;15.97;54.97;100350.75;6157114;23;20105;-35
2023/01/13 07:53:20;;;;;;;8.82;3.25;;;;;;;15.97;54.64;100348.94;6151190;23;20018;-37
2023/01/13 07:55:47;;;;;;;13.13;3.75;;;;;;;15.97;55.11;100359.63;6155487;23;20035;-35
2023/01/13 07:58:14;;;;;;;10.55;3.92;;;;;;;15.97;55.68;100364.97;6156765;23;20104;-35
2023/01/13 08:00:40;;;;;;;12.15;3.85;;;;;;;15.98;54.72;100368.47;6156610;23;20072;-35
2023/01/13 08:03:07;;;;;;;9.27;2.90;;;;;;;15.97;55.44;100358.78;6154936;23;20100;-34
2023/01/13 08:05:35;;;;;;;12.65;3.25;;;;;;;15.97;54.56;100364.97;6156353;23;20029;-34
2023/01/13 08:08:01;;;;;;;7.85;3.30;;;;;;;15.97;55.37;100362.28;6153989;23;20029;-35
2023/01/13 08:10:28;;;;;;;10.93;3.25;;;;;;;16.00;54.83;100371.81;6155456;23;20032;-34
2023/01/13 08:15:40;;;;;;;9.48;3.30;;;;;;;15.99;55.25;100389.69;6155350;23;20043;-34
2023/01/13 08:18:06;;;;;;;10.95;3.58;;;;;;;16.00;55.55;100393.19;6156238;23;20166;-34
2023/01/13 08:20:33;;;;;;;12.30;3.60;;;;;;;16.01;55.17;100395.75;6155819;23;20100;-35
2023/01/13 08:23:00;;;;;;;11.60;3.67;;;;;;;16.01;55.47;100390.41;6154824;23;20026;-35
2023/01/13 08:25:27;;;;;;;11.43;3.53;;;;;;;16.02;54.82;100408.09;6155379;23;20044;-35
2023/01/13 08:27:55;;;;;;;10.88;3.30;;;;;;;16.03;55.52;100406.28;6154818;23;20300;-35
2023/01/13 08:30:21;;;;;;;14.25;3.88;;;;;;;16.03;55.03;100403.59;6155250;23;20112;-35
2023/01/13 08:32:49;;;;;;;10.85;3.90;;;;;;;16.03;55.17;100404.44;6155721;23;20281;-34
2023/01/13 08:35:16;;;;;;;7.88;3.03;;;;;;;16.02;55.45;100404.59;6154247;23;20132;-34
2023/01/13 08:37:44;;;;;;;10.95;3.25;;;;;;;16.02;55.83;100413.44;6155213;23;20037;-35
2023/01/13 08:40:12;;;;;;;15.43;3.95;;;;;;;16.03;55.00;100408.94;6154526;23;20026;-34
2023/01/13 08:42:39;;;;;;;10.00;3.28;;;;;;;16.02;55.95;100409.94;6156637;23;20271;-34
2023/01/13 08:45:07;;;;;;;9.80;3.63;;;;;;;16.03;55.89;100408.94;6130736;23;20026;-38
2023/01/13 08:47:34;;;;;;;10.95;3.45;;;;;;;16.02;55.46;100402.75;6157105;23;20642;-35
2023/01/13 08:50:01;;;;;;;6.18;2.80;;;;;;;16.03;55.83;100400.94;6155258;23;20375;-35
2023/01/13 08:52:28;;;;;;;10.02;3.08;;;;;;;16.03;55.85;100411.63;6155668;23;20022;-35
2023/01/13 08:54:55;;;;;;;13.60;4.07;;;;;;;16.03;55.80;100424.97;6153910;23;20469;-36
2023/01/13 08:57:22;;;;;;;9.65;3.20;;;;;;;16.02;55.46;100420.63;6156750;23;20100;-36
2023/01/13 08:59:49;;;;;;;10.00;3.10;;;;;;;16.03;55.90;100427.66;6155659;23;20403;-35
2023/01/13 09:02:19;;;;;;;13.65;3.33;;;;;;;16.02;55.95;100426.81;6155671;23;20017;-35
2023/01/13 09:04:47;;;;;;;12.75;3.05;;;;;;;16.03;55.60;100422.31;6155194;23;20026;-36
2023/01/13 09:07:13;;;;;;;11.68;3.45;;;;;;;16.03;56.24;100420.47;6155080;23;20130;-36
2023/01/13 09:09:40;;;;;;;14.18;3.25;;;;;;;16.02;55.24;100429.50;6155020;23;20021;-36
2023/01/13 09:14:55;;;;;;;11.18;3.30;;;;;;;16.03;56.30;100430.34;6155089;23;20060;-35
2023/01/13 09:17:22;;;;;;;11.95;3.38;;;;;;;16.03;55.70;100427.66;6155399;23;20112;-35
2023/01/13 09:19:48;;;;;;;10.32;3.28;;;;;;;16.04;55.39;100440.06;6155339;23;20021;-35
2023/01/13 09:22:17;;;;;;;7.00;2.67;;;;;;;16.04;56.10;100434.72;6154453;23;20390;-35
2023/01/13 09:24:44;;;;;;;10.05;2.75;;;;;;;16.05;55.72;100441.72;6152948;23;20022;-35
2023/01/13 09:27:13;;;;;;;10.88;2.65;;;;;;;16.06;55.63;100446.06;6155281;23;20108;-35
2023/01/13 09:29:40;;;;;;;9.50;2.92;;;;;;;16.07;56.12;100452.25;6155158;23;20037;-35
2023/01/13 09:32:11;;;;;;;10.30;2.92;;;;;;;16.06;55.37;100454.09;6154656;23;20024;-35
2023/01/13 09:37:23;;;;;;;9.82;2.83;;;;;;;16.09;56.34;100461.81;6153518;23;20104;-35
2023/01/13 09:39:49;;;;;;;14.93;4.05;;;;;;;16.10;56.38;100460.00;6152703;23;20029;-34
2023/01/13 09:45:31;;;;;;;7.57;2.10;;;;;;;16.10;55.25;100458.16;6156206;23;20060;-34
2023/01/13 09:48:33;;;;;;;11.13;3.33;;;;;;;16.10;55.89;100466.16;6155486;23;20047;-35
2023/01/13 09:51:17;;;;;;;8.77;2.80;;;;;;;16.09;55.82;100467.16;6149647;23;20028;-35
2023/01/13 09:53:54;;;;;;;10.25;3.20;;;;;;;16.10;55.88;100470.69;6154574;23;20021;-35
2023/01/13 09:56:25;;;;;;;10.55;3.25;;;;;;;16.11;56.15;100475.88;6154710;23;20096;-35
2023/01/13 09:58:51;;;;;;;14.90;4.10;;;;;;;16.12;55.35;100479.38;6156141;23;20342;-35
2023/01/13 10:01:36;;;;;;;11.02;3.63;;;;;;;16.10;56.54;100484.88;6154641;23;20036;-36
2023/01/13 10:04:10;;;;;;;9.23;3.08;;;;;;;16.12;55.84;100492.75;6154721;23;20028;-35
2023/01/13 10:06:38;;;;;;;;;;;;;;;16.10;55.77;100492.91;6153295;23;20025;-35
2023/01/13 10:09:05;;;;;;;17.65;4.03;;;;;;;16.15;55.89;100501.31;6152116;23;19928;-35
2023/01/13 10:14:27;;;;;;;14.38;4.00;;;;;;;16.14;55.74;100504.97;6152496;23;20032;-35
2023/01/13 10:17:16;;;;;;;18.95;3.80;;;;;;;16.15;55.56;100511.16;6153128;23;20092;-36
2023/01/13 10:19:55;;;;;;;14.02;4.00;;;;;;;16.14;56.21;100523.69;6152645;23;20410;-35
2023/01/13 10:22:56;;;;;;;12.38;3.97;;;;;;;16.14;56.28;100526.38;6153024;23;20286;-35
2023/01/13 10:25:42;;;;;;;11.63;3.25;;;;;;;16.16;55.82;100526.22;6154470;23;20028;-35
2023/01/13 10:28:13;;;;;;;9.75;3.90;;;;;;;16.15;55.65;100530.72;6156123;23;20244;-35
2023/01/13 10:30:45;;;;;;;16.83;3.40;;;;;;;16.16;56.61;100536.91;6156653;23;20031;-34
2023/01/13 10:33:24;;;;;;;16.60;4.38;;;;;;;16.16;56.41;100547.59;6156821;23;20409;-35
2023/01/13 10:36:02;;;;;;;17.58;4.45;;;;;;;16.16;55.47;100540.44;6157724;23;20029;-37
2023/01/13 10:38:34;;;;;;;14.27;4.10;;;;;;;16.18;55.95;100543.81;6156687;23;20116;-36
2023/01/13 10:41:04;;;;;;;12.82;3.65;;;;;;;16.18;55.75;100533.09;6157697;23;20034;-34
2023/01/13 10:43:31;;;;;;;14.38;3.63;;;;;;;16.20;55.93;100549.00;6157733;23;20024;-35
2023/01/13 10:45:59;;;;;;;12.77;3.45;;;;;;;16.20;56.48;100536.50;6156925;23;20032;-35
2023/01/13 10:48:59;;;;;;;11.70;4.18;;;;;;;16.20;56.38;100541.84;6156902;23;20037;-34
2023/01/13 10:51:44;;;;;;;11.10;3.10;;;;;;;16.22;55.93;100550.53;6136647;23;20096;-34
2023/01/13 10:54:10;;;;;;;11.40;3.30;;;;;;;16.24;55.81;100561.94;6154666;23;20100;-34
2023/01/13 10:56:39;;;;;;;14.32;3.70;;;;;;;16.24;56.40;100543.22;6155615;23;20021;-34
2023/01/13 10:59:12;;;;;;;10.65;3.00;;;;;;;16.24;55.87;100553.91;6155931;23;20112;-34
2023/01/13 11:01:41;;;;;;;12.23;3.15;;;;;;;16.24;56.28;100564.63;6156287;23;20021;-36
2023/01/13 11:04:42;;;;;;;13.95;3.42;;;;;;;16.23;56.18;100568.25;6156980;23;20461;-34
2023/01/13 11:07:33;;;;;;;10.15;3.35;;;;;;;16.23;56.59;100576.28;6136171;23;20076;-35
2023/01/13 11:10:23;;;;;;;11.32;3.10;;;;;;;16.24;56.40;100566.41;6142029;23;20035;-35
2023/01/13 11:12:57;;;;;;;13.77;3.42;;;;;;;16.26;55.92;100567.13;6157273;23;20022;-34
2023/01/13 11:15:37;;;;;;;11.60;3.00;;;;;;;16.26;55.85;100583.16;6150962;23;20021;-34
2023/01/13 11:18:15;;;;;;;7.45;3.35;;;;;;;16.27;56.01;100574.16;6155842;23;20109;-35
2023/01/13 11:20:45;;;;;;;11.73;3.33;;;;;;;16.27;56.20;100577.66;6155967;23;20097;-35
2023/01/13 11:23:35;;;;;;;8.48;2.95;;;;;;;16.26;55.89;100573.31;6154718;23;20021;-34
2023/01/13 11:26:20;;;;;;;10.13;2.75;;;;;;;16.29;56.07;100570.34;6155059;23;20592;-34
2023/01/13 11:29:04;;;;;;;14.15;2.80;;;;;;;16.29;55.67;100573.03;6155866;23;20100;-34
2023/01/13 11:31:41;;;;;;;11.95;3.55;;;;;;;16.32;56.22;100597.78;6154784;23;20096;-34
2023/01/13 11:34:34;;;;;;;11.80;2.95;;;;;;;16.32;56.24;100587.91;6156648;23;20044;-35
2023/01/13 11:37:08;;;;;;;11.20;2.83;;;;;;;16.33;56.00;100594.13;6154832;23;20025;-34
2023/01/13 11:39:43;;;;;;;;;;;;;;;16.31;56.45;100599.59;6127680;23;20025;-34
2023/01/13 11:42:28;;;;;;;12.20;3.53;;;;;;;16.34;56.47;100607.34;6156302;23;19917;-34
2023/01/13 11:45:29;;;;;;;11.65;3.03;;;;;;;16.31;56.14;100607.63;6155848;23;20036;-34
2023/01/13 11:47:58;;;;;;;12.02;2.58;;;;;;;16.32;55.75;100597.78;6155606;23;20025;-34
2023/01/13 11:50:46;;;;;;;13.73;3.00;;;;;;;16.33;56.33;100599.47;6153864;23;20342;-34
2023/01/13 11:53:44;;;;;;;10.60;2.78;;;;;;;16.32;56.67;100611.13;6155916;23;20332;-35
2023/01/13 11:56:48;;;;;;;8.93;2.38;;;;;;;16.32;56.42;100603.13;6156126;23;20022;-34
2023/01/13 11:59:24;;;;;;;11.90;2.87;;;;;;;16.34;56.64;100607.34;6153725;23;20029;-35
2023/01/13 12:02:03;;;;;;;10.05;2.63;;;;;;;16.33;56.61;100619.03;6155801;23;20057;-34
2023/01/13 12:04:51;;;;;;;10.90;2.72;;;;;;;16.32;56.48;100617.31;6154930;23;20076;-34
2023/01/13 12:07:51;;;;;;;9.68;3.13;;;;;;;16.34;56.52;100631.41;6155465;23;20030;-35
2023/01/13 12:10:36;;;;;;;8.82;1.98;;;;;;;16.35;56.14;100621.56;6154660;23;20021;-34
2023/01/13 12:13:20;;;;;;;10.40;2.33;;;;;;;16.36;56.18;100633.94;6155148;23;20029;-34
2023/01/13 12:15:59;;;;;;;8.10;2.58;;;;;;;16.37;55.51;100630.28;6155768;23;20028;-35
2023/01/13 12:18:58;;;;;;;10.13;2.60;;;;;;;16.36;56.18;100636.59;6155012;23;20025;-34
2023/01/13 12:21:29;;;;;;;7.85;2.63;;;;;;;16.37;55.92;100639.16;6129957;23;20044;-35
2023/01/13 12:24:37;;;;;;;7.13;2.40;;;;;;;16.35;56.11;100638.44;6154195;23;20473;-34
2023/01/13 12:27:08;;;;;;;10.18;2.17;;;;;;;16.38;55.83;100645.34;6140843;23;20021;-35
2023/01/13 12:29:37;;;;;;;8.90;1.85;;;;;;;16.38;55.39;100656.88;6154055;23;20036;-37